createdAt,value
2022-12-16T00:00:27.285Z,45.12
2022-12-16T00:01:27.266Z,46.08
2022-12-16T00:02:27.297Z,47.21
2022-12-16T00:03:27.474Z,47.05
2022-12-16T00:04:27.257Z,45.76
2022-12-16T00:05:27.242Z,45.12
2022-12-16T00:06:27.218Z,45.60
2022-12-16T00:07:27.205Z,45.28
2022-12-16T00:08:27.195Z,46.41
2022-12-16T00:09:27.206Z,45.28
2022-12-16T00:10:27.178Z,45.12
2022-12-16T00:11:28.083Z,45.44
2022-12-16T00:12:27.165Z,45.12
2022-12-16T00:13:27.163Z,44.15
2022-12-16T00:14:27.163Z,46.41
2022-12-16T00:15:27.148Z,45.28
2022-12-16T00:16:59.062Z,45.28
2022-12-16T00:17:27.122Z,52.85
2022-12-16T00:18:27.139Z,45.92
2022-12-16T00:19:27.117Z,46.89
2022-12-16T00:20:27.124Z,46.25
2022-12-16T00:21:27.107Z,47.05
2022-12-16T00:22:27.091Z,45.92
2022-12-16T00:23:27.094Z,45.92
2022-12-16T00:24:27.101Z,45.44
2022-12-16T00:25:27.078Z,46.57
2022-12-16T00:26:27.081Z,45.12
2022-12-16T00:27:27.075Z,44.47
2022-12-16T00:28:27.054Z,44.47
2022-12-16T00:29:27.046Z,44.47
2022-12-16T00:30:27.038Z,45.12
2022-12-16T00:31:27.088Z,45.44
2022-12-16T00:32:27.055Z,44.79
2022-12-16T00:33:27.046Z,45.28
2022-12-16T00:34:27.015Z,45.12
2022-12-16T00:35:27.009Z,46.41
2022-12-16T00:36:27.015Z,45.60
2022-12-16T00:37:27.025Z,45.92
2022-12-16T00:38:26.982Z,45.44
2022-12-16T00:39:27.012Z,45.60
2022-12-16T00:40:26.994Z,45.76
2022-12-16T00:41:26.969Z,45.60
2022-12-16T00:42:26.974Z,45.44
2022-12-16T00:43:26.968Z,46.41
2022-12-16T00:44:26.933Z,45.60
2022-12-16T00:45:26.980Z,45.44
2022-12-16T00:46:26.981Z,45.92
2022-12-16T00:47:26.945Z,45.12
2022-12-16T00:48:26.912Z,45.12
2022-12-16T00:49:26.909Z,44.79
2022-12-16T00:50:26.900Z,44.63
2022-12-16T00:51:26.893Z,45.76
2022-12-16T00:52:26.883Z,45.76
2022-12-16T00:53:26.897Z,46.89
2022-12-16T00:54:26.880Z,45.28
2022-12-16T00:55:26.887Z,44.63
2022-12-16T00:56:26.867Z,45.12
2022-12-16T00:57:26.854Z,44.47
2022-12-16T00:58:26.847Z,44.96
2022-12-16T00:59:26.850Z,45.12
2022-12-16T01:00:26.831Z,44.63
2022-12-16T01:01:27.958Z,44.31
2022-12-16T01:02:26.980Z,44.15
2022-12-16T01:03:26.873Z,44.47
2022-12-16T01:04:26.814Z,44.79
2022-12-16T01:05:27.041Z,45.76
2022-12-16T01:06:26.795Z,45.44
2022-12-16T01:07:26.779Z,45.92
2022-12-16T01:08:26.830Z,45.92
2022-12-16T01:09:26.775Z,44.47
2022-12-16T01:10:26.755Z,44.63
2022-12-16T01:11:26.750Z,45.76
2022-12-16T01:12:26.746Z,45.76
2022-12-16T01:13:26.734Z,46.08
2022-12-16T01:14:26.769Z,46.08
2022-12-16T01:15:26.715Z,44.79
2022-12-16T01:16:26.754Z,45.44
2022-12-16T01:17:26.697Z,45.12
2022-12-16T01:18:26.716Z,45.28
2022-12-16T01:19:26.716Z,44.31
2022-12-16T01:20:26.691Z,46.89
2022-12-16T01:21:26.690Z,46.25
2022-12-16T01:22:26.690Z,45.76
2022-12-16T01:23:26.677Z,45.76
2022-12-16T01:24:26.673Z,46.57
2022-12-16T01:25:26.667Z,46.57
2022-12-16T01:26:26.655Z,45.60
2022-12-16T01:27:26.641Z,45.92
2022-12-16T01:28:26.650Z,46.08
2022-12-16T01:29:26.619Z,45.76
2022-12-16T01:30:26.611Z,45.28
2022-12-16T01:31:26.680Z,44.96
2022-12-16T01:32:26.600Z,44.79
2022-12-16T01:33:26.608Z,45.60
2022-12-16T01:34:26.577Z,46.08
2022-12-16T01:35:56.621Z,45.12
2022-12-16T01:36:28.583Z,45.44
2022-12-16T01:37:26.561Z,47.05
2022-12-16T01:38:26.596Z,46.41
2022-12-16T01:39:26.558Z,45.60
2022-12-16T01:40:26.536Z,45.60
2022-12-16T01:41:26.550Z,45.44
2022-12-16T01:42:26.519Z,47.05
2022-12-16T01:43:26.552Z,50.43
2022-12-16T01:44:26.520Z,47.53
2022-12-16T01:45:26.543Z,46.57
2022-12-16T01:46:26.641Z,44.96
2022-12-16T01:47:26.493Z,44.47
2022-12-16T01:48:26.513Z,44.47
2022-12-16T01:49:26.494Z,46.41
2022-12-16T01:50:26.479Z,45.28
2022-12-16T01:51:26.474Z,45.60
2022-12-16T01:52:26.462Z,46.25
2022-12-16T01:53:26.441Z,46.41
2022-12-16T01:54:26.460Z,45.92
2022-12-16T01:55:26.432Z,46.08
2022-12-16T01:56:26.458Z,44.63
2022-12-16T01:57:26.425Z,43.99
2022-12-16T01:58:26.416Z,43.83
2022-12-16T01:59:26.437Z,43.99
2022-12-16T02:00:26.667Z,43.99
2022-12-16T02:01:26.544Z,46.41
2022-12-16T02:02:26.500Z,45.44
2022-12-16T02:03:26.485Z,45.44
2022-12-16T02:04:26.386Z,45.44
2022-12-16T02:05:26.366Z,46.08
2022-12-16T02:06:26.380Z,46.25
2022-12-16T02:07:26.378Z,45.60
2022-12-16T02:08:26.342Z,45.44
2022-12-16T02:09:27.107Z,45.60
2022-12-16T02:10:26.331Z,45.28
2022-12-16T02:11:26.329Z,45.28
2022-12-16T02:12:26.345Z,47.37
2022-12-16T02:13:26.309Z,46.73
2022-12-16T02:14:26.296Z,46.25
2022-12-16T02:15:26.292Z,45.92
2022-12-16T02:16:26.329Z,46.89
2022-12-16T02:17:26.322Z,45.76
2022-12-16T02:18:26.288Z,45.60
2022-12-16T02:19:26.298Z,45.28
2022-12-16T02:20:26.268Z,45.44
2022-12-16T02:21:26.247Z,44.96
2022-12-16T02:22:26.243Z,44.63
2022-12-16T02:23:26.268Z,44.47
2022-12-16T02:24:26.241Z,44.15
2022-12-16T02:25:26.215Z,44.47
2022-12-16T02:26:26.218Z,44.31
2022-12-16T02:27:26.203Z,44.47
2022-12-16T02:28:26.199Z,44.63
2022-12-16T02:29:26.201Z,44.63
2022-12-16T02:30:26.234Z,44.15
2022-12-16T02:31:27.249Z,45.12
2022-12-16T02:32:58.074Z,44.15
2022-12-16T02:33:26.173Z,45.12
2022-12-16T02:34:26.158Z,45.12
2022-12-16T02:35:26.156Z,45.12
2022-12-16T02:36:26.135Z,45.12
2022-12-16T02:37:26.151Z,44.15
2022-12-16T02:38:26.139Z,44.47
2022-12-16T02:39:26.171Z,45.12
2022-12-16T02:40:26.113Z,45.92
2022-12-16T02:41:26.105Z,47.37
2022-12-16T02:42:26.122Z,46.08
2022-12-16T02:43:26.107Z,44.47
2022-12-16T02:44:26.092Z,45.12
2022-12-16T02:45:26.118Z,45.28
2022-12-16T02:46:26.080Z,45.60
2022-12-16T02:47:26.215Z,46.08
2022-12-16T02:48:26.060Z,44.31
2022-12-16T02:49:26.047Z,43.51
2022-12-16T02:50:26.049Z,44.15
2022-12-16T02:51:26.032Z,44.63
2022-12-16T02:52:26.154Z,44.15
2022-12-16T02:53:26.025Z,44.96
2022-12-16T02:54:26.008Z,44.96
2022-12-16T02:55:26.009Z,44.63
2022-12-16T02:56:26.013Z,44.31
2022-12-16T02:57:25.990Z,44.15
2022-12-16T02:58:25.986Z,44.15
2022-12-16T02:59:25.965Z,44.47
2022-12-16T03:00:25.973Z,45.28
2022-12-16T03:01:26.125Z,45.60
2022-12-16T03:02:26.092Z,45.12
2022-12-16T03:03:26.520Z,45.44
2022-12-16T03:04:25.965Z,45.12
2022-12-16T03:05:25.912Z,45.44
2022-12-16T03:06:25.923Z,43.18
2022-12-16T03:07:25.907Z,43.99
2022-12-16T03:08:25.928Z,44.31
2022-12-16T03:09:25.923Z,44.79
2022-12-16T03:10:25.899Z,45.12
2022-12-16T03:11:25.870Z,45.44
2022-12-16T03:12:25.887Z,45.60
2022-12-16T03:13:25.873Z,45.76
2022-12-16T03:14:25.851Z,44.79
2022-12-16T03:15:25.860Z,45.12
2022-12-16T03:16:25.899Z,45.44
2022-12-16T03:17:25.830Z,45.12
2022-12-16T03:18:25.845Z,47.53
2022-12-16T03:19:25.840Z,46.73
2022-12-16T03:20:25.830Z,46.89
2022-12-16T03:21:25.801Z,47.53
2022-12-16T03:22:25.804Z,45.76
2022-12-16T03:23:25.803Z,45.76
2022-12-16T03:24:25.788Z,44.96
2022-12-16T03:25:25.812Z,46.25
2022-12-16T03:26:25.790Z,45.28
2022-12-16T03:27:25.770Z,45.60
2022-12-16T03:28:25.748Z,45.76
2022-12-16T03:29:25.747Z,46.25
2022-12-16T03:30:57.686Z,46.89
2022-12-16T03:31:25.759Z,48.34
2022-12-16T03:32:25.735Z,45.60
2022-12-16T03:33:25.721Z,45.76
2022-12-16T03:34:26.587Z,45.12
2022-12-16T03:35:25.724Z,45.76
2022-12-16T03:36:25.725Z,45.92
2022-12-16T03:37:25.684Z,45.76
2022-12-16T03:38:25.699Z,47.05
2022-12-16T03:39:25.693Z,45.28
2022-12-16T03:40:25.686Z,44.96
2022-12-16T03:41:26.679Z,45.92
2022-12-16T03:42:26.738Z,46.41
2022-12-16T03:43:25.752Z,45.28
2022-12-16T03:44:25.669Z,44.63
2022-12-16T03:45:25.639Z,44.47
2022-12-16T03:46:25.730Z,45.12
2022-12-16T03:47:25.650Z,44.96
2022-12-16T04:04:19.890Z,44.96
2022-12-16T04:05:21.010Z,44.47
2022-12-16T04:06:21.002Z,45.12
2022-12-16T04:07:21.035Z,46.89
2022-12-16T04:08:21.009Z,49.31
2022-12-16T04:09:21.022Z,48.82
2022-12-16T04:10:20.987Z,48.34
2022-12-16T04:11:20.996Z,48.66
2022-12-16T04:12:20.973Z,45.60
2022-12-16T04:13:20.963Z,45.44
2022-12-16T04:14:20.954Z,48.98
2022-12-16T04:15:20.960Z,47.37
2022-12-16T04:16:21.121Z,49.95
2022-12-16T04:17:20.931Z,47.05
2022-12-16T04:18:21.603Z,49.79
2022-12-16T04:19:20.924Z,58.49
2022-12-16T04:20:20.914Z,48.82
2022-12-16T04:21:20.930Z,47.53
2022-12-16T04:22:20.905Z,47.53
2022-12-16T04:23:20.900Z,46.73
2022-12-16T04:24:20.898Z,48.82
2022-12-16T04:25:20.883Z,50.27
2022-12-16T04:26:20.865Z,51.72
2022-12-16T04:27:20.875Z,48.82
2022-12-16T04:28:20.862Z,46.73
2022-12-16T04:29:20.860Z,47.37
2022-12-16T04:30:20.844Z,47.05
2022-12-16T04:31:20.903Z,47.37
2022-12-16T04:32:20.881Z,47.05
2022-12-16T04:33:20.857Z,48.66
2022-12-16T04:34:20.821Z,49.95
2022-12-16T04:35:20.838Z,58.01
2022-12-16T04:36:20.803Z,53.17
2022-12-16T04:37:20.795Z,51.88
2022-12-16T04:38:20.820Z,56.40
2022-12-16T04:39:20.776Z,49.79
2022-12-16T04:40:20.770Z,57.52
2022-12-16T04:41:20.774Z,48.98
2022-12-16T04:42:21.618Z,52.53
2022-12-16T04:43:20.745Z,53.66
2022-12-16T04:44:20.751Z,50.11
2022-12-16T04:45:20.724Z,53.17
2022-12-16T04:46:21.665Z,49.79
2022-12-16T04:47:20.742Z,50.43
2022-12-16T04:48:20.711Z,53.33
2022-12-16T04:49:20.730Z,50.92
2022-12-16T04:50:20.698Z,48.18
2022-12-16T04:51:20.687Z,50.27
2022-12-16T04:52:20.690Z,47.86
2022-12-16T04:53:20.679Z,48.34
2022-12-16T04:54:20.673Z,53.50
2022-12-16T04:55:20.663Z,55.91
2022-12-16T04:56:20.667Z,49.79
2022-12-16T04:57:20.644Z,53.82
2022-12-16T04:58:20.632Z,50.27
2022-12-16T04:59:20.641Z,49.31
2022-12-16T05:00:20.635Z,47.86
2022-12-16T05:01:20.738Z,47.53
2022-12-16T05:02:20.803Z,48.98
2022-12-16T05:03:20.630Z,46.57
2022-12-16T05:04:20.589Z,52.85
2022-12-16T05:05:20.604Z,51.40
2022-12-16T05:06:20.655Z,53.82
2022-12-16T05:07:20.575Z,52.69
2022-12-16T05:08:20.579Z,48.82
2022-12-16T05:09:20.559Z,48.34
2022-12-16T05:10:20.566Z,48.18
2022-12-16T05:11:20.568Z,48.66
2022-12-16T05:12:20.602Z,49.31
2022-12-16T05:13:20.544Z,51.24
2022-12-16T05:14:20.543Z,56.24
2022-12-16T05:15:20.513Z,49.31
2022-12-16T05:16:20.555Z,47.70
2022-12-16T05:17:20.514Z,48.66
2022-12-16T05:18:21.137Z,49.95
2022-12-16T05:19:20.512Z,50.27
2022-12-16T05:20:20.492Z,58.65
2022-12-16T05:21:20.492Z,48.82
2022-12-16T05:22:20.534Z,54.30
2022-12-16T05:23:20.478Z,50.60
2022-12-16T05:24:20.451Z,51.88
2022-12-16T05:25:20.435Z,51.24
2022-12-16T05:26:20.451Z,54.62
2022-12-16T05:27:20.428Z,53.17
2022-12-16T05:28:20.483Z,57.36
2022-12-16T05:29:20.411Z,61.71
2022-12-16T05:30:20.415Z,50.92
2022-12-16T05:31:20.479Z,51.88
2022-12-16T05:32:21.108Z,55.11
2022-12-16T05:33:20.409Z,53.66
2022-12-16T05:34:20.387Z,49.31
2022-12-16T05:35:20.376Z,48.98
2022-12-16T05:36:20.354Z,55.11
2022-12-16T05:37:20.376Z,50.43
2022-12-16T05:38:21.112Z,51.40
2022-12-16T05:39:20.366Z,57.36
2022-12-16T05:40:20.356Z,51.88
2022-12-16T05:41:20.344Z,52.37
2022-12-16T05:42:20.320Z,53.01
2022-12-16T05:43:20.324Z,54.79
2022-12-16T05:44:20.325Z,58.81
2022-12-16T05:45:20.314Z,56.07
2022-12-16T05:46:20.380Z,54.79
2022-12-16T05:47:20.376Z,55.91
2022-12-16T05:48:20.280Z,51.40
2022-12-16T05:49:20.289Z,57.69
2022-12-16T05:50:20.258Z,57.04
2022-12-16T05:51:20.280Z,65.26
2022-12-16T05:52:20.240Z,51.08
2022-12-16T05:53:20.267Z,60.59
2022-12-16T05:54:20.226Z,50.11
2022-12-16T05:55:21.031Z,53.98
2022-12-16T05:56:20.231Z,51.88
2022-12-16T05:57:20.233Z,49.31
2022-12-16T05:58:20.204Z,54.95
2022-12-16T05:59:20.195Z,57.36
2022-12-16T06:00:20.212Z,60.10
2022-12-16T06:01:20.227Z,56.24
2022-12-16T06:02:20.384Z,53.98
2022-12-16T06:03:20.251Z,58.33
2022-12-16T06:04:20.294Z,55.11
2022-12-16T06:05:20.176Z,52.21
2022-12-16T06:06:20.147Z,60.26
2022-12-16T06:07:20.165Z,56.72
2022-12-16T06:08:20.125Z,54.14
2022-12-16T06:09:20.122Z,58.97
2022-12-16T06:10:20.105Z,55.91
2022-12-16T06:11:20.160Z,55.75
2022-12-16T06:12:20.093Z,50.76
2022-12-16T06:13:20.104Z,60.91
2022-12-16T06:14:20.080Z,58.01
2022-12-16T06:15:52.055Z,55.91
2022-12-16T06:16:20.093Z,69.77
2022-12-16T06:17:20.055Z,62.84
2022-12-16T06:18:20.073Z,61.23
2022-12-16T06:19:20.056Z,55.91
2022-12-16T06:20:20.103Z,57.85
2022-12-16T06:21:20.035Z,60.42
2022-12-16T06:22:20.031Z,57.04
2022-12-16T06:23:24.124Z,59.46
2022-12-16T06:24:22.035Z,62.04
2022-12-16T06:25:19.994Z,56.40
2022-12-16T06:26:19.996Z,62.52
2022-12-16T06:27:19.984Z,62.04
2022-12-16T06:28:19.996Z,55.91
2022-12-16T06:29:19.966Z,60.59
2022-12-16T06:30:19.976Z,68.32
2022-12-16T06:31:19.970Z,62.68
2022-12-16T06:32:19.999Z,64.29
2022-12-16T06:33:19.938Z,63.49
2022-12-16T06:34:19.944Z,52.05
2022-12-16T06:35:19.917Z,69.61
2022-12-16T06:36:19.916Z,69.77
2022-12-16T06:37:19.913Z,63.65
2022-12-16T06:38:19.904Z,62.36
2022-12-16T06:39:19.908Z,59.62
2022-12-16T06:40:19.906Z,58.33
2022-12-16T06:41:19.892Z,58.17
2022-12-16T06:42:19.863Z,65.90
2022-12-16T06:43:19.897Z,63.33
2022-12-16T06:44:19.858Z,58.97
2022-12-16T06:45:19.863Z,56.24
2022-12-16T06:46:19.929Z,65.74
2022-12-16T06:47:19.859Z,62.68
2022-12-16T06:48:19.823Z,62.52
2022-12-16T06:49:19.824Z,68.00
2022-12-16T06:50:19.821Z,58.33
2022-12-16T06:51:19.812Z,56.72
2022-12-16T06:52:19.799Z,55.11
2022-12-16T06:53:19.773Z,60.26
2022-12-16T06:54:19.772Z,65.42
2022-12-16T06:55:19.770Z,51.40
2022-12-16T06:56:19.790Z,61.07
2022-12-16T06:57:19.756Z,61.55
2022-12-16T06:58:19.771Z,55.43
2022-12-16T06:59:19.740Z,54.95
2022-12-16T07:00:19.743Z,63.16
2022-12-16T07:01:19.823Z,61.55
2022-12-16T07:02:19.882Z,58.33
2022-12-16T07:03:19.754Z,54.30
2022-12-16T07:04:19.834Z,53.66
2022-12-16T07:05:19.742Z,56.40
2022-12-16T07:06:19.854Z,51.88
2022-12-16T07:07:19.843Z,59.14
2022-12-16T07:08:19.805Z,64.29
2022-12-16T07:09:19.681Z,56.07
2022-12-16T07:10:19.690Z,50.76
2022-12-16T07:11:19.651Z,55.91
2022-12-16T07:12:19.642Z,57.85
2022-12-16T07:13:19.653Z,55.59
2022-12-16T07:14:19.645Z,61.07
2022-12-16T07:15:19.616Z,50.11
2022-12-16T07:16:19.611Z,54.14
2022-12-16T07:17:19.607Z,51.40
2022-12-16T07:18:19.595Z,57.36
2022-12-16T07:19:20.609Z,53.33
2022-12-16T07:20:19.577Z,59.30
2022-12-16T07:21:19.575Z,53.33
2022-12-16T07:22:19.566Z,50.92
2022-12-16T07:23:20.153Z,61.71
2022-12-16T07:24:20.579Z,61.87
2022-12-16T07:25:19.531Z,51.88
2022-12-16T07:26:20.583Z,63.49
2022-12-16T07:27:19.524Z,58.97
2022-12-16T07:28:19.522Z,60.42
2022-12-16T07:29:19.545Z,49.79
2022-12-16T07:30:19.700Z,60.26
2022-12-16T07:31:19.583Z,58.01
2022-12-16T07:32:19.503Z,50.92
2022-12-16T07:33:19.476Z,55.11
2022-12-16T07:34:19.490Z,57.36
2022-12-16T07:35:19.495Z,60.59
2022-12-16T07:36:19.493Z,57.85
2022-12-16T07:37:19.446Z,51.24
2022-12-16T07:38:19.443Z,55.75
2022-12-16T07:39:19.470Z,54.46
2022-12-16T07:40:19.413Z,60.59
2022-12-16T07:41:19.412Z,51.24
2022-12-16T07:42:19.418Z,56.56
2022-12-16T07:43:19.417Z,54.95
2022-12-16T07:44:19.403Z,52.53
2022-12-16T07:45:19.407Z,53.66
2022-12-16T07:46:19.454Z,52.85
2022-12-16T07:47:19.387Z,51.40
2022-12-16T07:48:19.378Z,52.37
2022-12-16T07:49:19.375Z,55.91
2022-12-16T07:50:19.352Z,58.17
2022-12-16T07:51:19.359Z,50.76
2022-12-16T07:52:19.371Z,53.50
2022-12-16T07:53:19.322Z,53.01
2022-12-16T07:54:19.331Z,52.05
2022-12-16T07:55:19.318Z,62.20
2022-12-16T07:56:19.395Z,52.37
2022-12-16T07:57:19.299Z,54.46
2022-12-16T07:58:19.280Z,58.17
2022-12-16T07:59:19.272Z,55.43
2022-12-16T08:00:19.280Z,55.11
2022-12-16T08:01:19.380Z,60.91
2022-12-16T08:02:19.412Z,58.81
2022-12-16T08:03:19.298Z,56.56
2022-12-16T08:04:19.238Z,61.71
2022-12-16T08:05:19.237Z,51.24
2022-12-16T08:06:19.224Z,61.07
2022-12-16T08:07:20.124Z,53.50
2022-12-16T08:08:20.221Z,57.04
2022-12-16T08:09:19.198Z,66.39
2022-12-16T08:10:19.204Z,60.42
2022-12-16T08:11:19.187Z,62.04
2022-12-16T08:12:19.179Z,55.59
2022-12-16T08:13:23.824Z,59.62
2022-12-16T08:14:21.158Z,49.15
2022-12-16T08:15:19.175Z,50.11
2022-12-16T08:16:19.216Z,60.42
2022-12-16T08:17:19.192Z,53.50
2022-12-16T08:18:19.137Z,51.56
2022-12-16T08:19:19.148Z,54.62
2022-12-16T08:20:19.131Z,52.69
2022-12-16T08:21:19.123Z,56.56
2022-12-16T08:22:19.099Z,60.75
2022-12-16T08:23:19.104Z,53.66
2022-12-16T08:24:19.110Z,52.21
2022-12-16T08:25:19.083Z,56.07
2022-12-16T08:26:19.110Z,53.50
2022-12-16T08:27:19.068Z,50.43
2022-12-16T08:28:19.076Z,49.47
2022-12-16T08:29:45.649Z,53.82
2022-12-16T08:30:21.072Z,53.50
2022-12-16T08:31:19.163Z,50.60
2022-12-16T08:32:19.036Z,60.59
2022-12-16T08:33:19.940Z,62.04
2022-12-16T08:34:20.021Z,64.61
2022-12-16T08:35:19.059Z,59.94
2022-12-16T08:36:19.011Z,57.36
2022-12-16T08:37:18.993Z,59.94
2022-12-16T08:38:18.995Z,52.37
2022-12-16T08:39:18.986Z,58.49
2022-12-16T08:40:34.884Z,53.33
2022-12-16T08:41:21.692Z,61.87
2022-12-16T08:42:18.970Z,56.40
2022-12-16T08:43:18.957Z,58.65
2022-12-16T08:44:18.954Z,58.17
2022-12-16T08:45:18.935Z,51.56
2022-12-16T08:46:19.003Z,50.43
2022-12-16T08:47:18.923Z,55.59
2022-12-16T08:48:18.904Z,57.36
2022-12-16T08:49:18.934Z,58.97
2022-12-16T08:50:18.898Z,60.59
2022-12-16T08:51:18.900Z,52.37
2022-12-16T08:52:18.911Z,52.69
2022-12-16T08:53:18.901Z,57.20
2022-12-16T08:54:18.886Z,60.10
2022-12-16T08:55:22.421Z,60.42
2022-12-16T08:56:19.856Z,53.98
2022-12-16T08:57:18.848Z,62.04
2022-12-16T08:58:18.901Z,56.88
2022-12-16T08:59:18.850Z,49.95
2022-12-16T09:00:18.847Z,53.66
2022-12-16T09:01:18.928Z,53.01
2022-12-16T09:02:19.265Z,55.59
2022-12-16T09:03:19.047Z,53.82
2022-12-16T09:04:18.824Z,59.78
2022-12-16T09:05:18.812Z,53.01
2022-12-16T09:06:18.850Z,57.52
2022-12-16T09:07:18.791Z,49.31
2022-12-16T09:08:18.759Z,57.04
2022-12-16T09:09:18.766Z,57.04
2022-12-16T09:10:18.771Z,53.82
2022-12-16T09:11:18.764Z,55.75
2022-12-16T09:12:18.782Z,59.78
2022-12-16T09:13:18.722Z,64.13
2022-12-16T09:14:18.719Z,58.17
2022-12-16T09:15:18.736Z,56.07
2022-12-16T09:16:19.847Z,61.71
2022-12-16T09:17:19.702Z,58.81
2022-12-16T09:18:18.727Z,56.07
2022-12-16T09:19:18.677Z,61.39
2022-12-16T09:20:18.672Z,51.40
2022-12-16T09:21:18.717Z,50.11
2022-12-16T09:22:18.683Z,61.55
2022-12-16T09:23:18.657Z,59.30
2022-12-16T09:24:18.673Z,54.62
2022-12-16T09:25:18.631Z,57.69
2022-12-16T09:26:18.691Z,52.21
2022-12-16T09:27:20.566Z,52.85
2022-12-16T09:28:18.636Z,50.43
2022-12-16T09:29:18.618Z,50.11
2022-12-16T09:30:18.622Z,55.11
2022-12-16T09:31:50.496Z,58.01
2022-12-16T09:32:18.657Z,58.01
2022-12-16T09:33:50.519Z,51.08
2022-12-16T09:34:50.510Z,58.17
2022-12-16T09:35:18.580Z,49.63
2022-12-16T09:36:50.511Z,59.78
2022-12-16T09:37:50.474Z,66.71
2022-12-16T09:38:19.336Z,59.30
2022-12-16T09:39:50.465Z,56.40
2022-12-16T09:40:18.528Z,62.68
2022-12-16T09:41:18.522Z,51.56
2022-12-16T09:42:50.422Z,55.59
2022-12-16T09:43:18.519Z,61.39
2022-12-16T09:44:50.456Z,55.11
2022-12-16T09:45:18.511Z,65.42
2022-12-16T09:46:18.559Z,61.39
2022-12-16T09:47:50.402Z,56.88
2022-12-16T09:48:18.482Z,62.84
2022-12-16T09:49:18.461Z,56.88
2022-12-16T09:50:18.476Z,54.46
2022-12-16T09:51:18.444Z,61.07
2022-12-16T09:52:18.798Z,65.42
2022-12-16T09:53:50.345Z,60.26
2022-12-16T09:54:18.433Z,68.32
2022-12-16T09:55:50.370Z,53.33
2022-12-16T09:56:18.423Z,59.14
2022-12-16T09:57:18.514Z,59.62
2022-12-16T09:58:18.422Z,60.42
2022-12-16T09:59:18.390Z,61.71
2022-12-16T10:00:18.382Z,57.20
2022-12-16T10:01:18.531Z,58.01
2022-12-16T10:02:18.969Z,52.53
2022-12-16T10:03:18.613Z,56.07
2022-12-16T10:04:18.379Z,66.55
2022-12-16T10:05:18.332Z,58.65
2022-12-16T10:06:18.354Z,52.05
2022-12-16T10:07:18.345Z,52.85
2022-12-16T10:08:19.242Z,53.33
2022-12-16T10:09:19.314Z,56.40
2022-12-16T10:10:18.304Z,58.65
2022-12-16T10:11:18.312Z,49.47
2022-12-16T10:12:18.306Z,59.46
2022-12-16T10:13:18.289Z,51.08
2022-12-16T10:14:50.186Z,57.85
2022-12-16T10:15:50.235Z,57.36
2022-12-16T10:16:50.176Z,58.65
2022-12-16T10:17:50.175Z,62.68
2022-12-16T10:18:50.246Z,55.11
2022-12-16T10:19:18.232Z,53.33
2022-12-16T10:20:18.219Z,53.50
2022-12-16T10:21:18.234Z,65.58
2022-12-16T10:22:18.246Z,57.69
2022-12-16T10:23:18.200Z,51.40
2022-12-16T10:24:18.224Z,59.46
2022-12-16T10:25:24.600Z,56.72
2022-12-16T10:26:20.185Z,58.17
2022-12-16T10:27:18.192Z,65.26
2022-12-16T10:28:18.210Z,59.78
2022-12-16T10:29:21.121Z,62.36
2022-12-16T10:30:18.180Z,55.59
2022-12-16T10:31:18.218Z,55.27
2022-12-16T10:32:18.131Z,49.63
2022-12-16T10:33:18.124Z,55.11
2022-12-16T10:34:18.129Z,63.97
2022-12-16T10:35:18.236Z,60.75
2022-12-16T10:36:18.122Z,63.81
2022-12-16T10:37:20.895Z,54.62
2022-12-16T10:38:19.086Z,61.07
2022-12-16T10:39:18.133Z,60.59
2022-12-16T10:40:18.061Z,53.82
2022-12-16T10:41:18.178Z,52.37
2022-12-16T10:42:18.047Z,63.16
2022-12-16T10:43:22.190Z,55.43
2022-12-16T10:44:19.064Z,62.20
2022-12-16T10:45:18.072Z,50.60
2022-12-16T10:46:18.114Z,50.43
2022-12-16T10:47:18.032Z,56.24
2022-12-16T10:48:18.008Z,54.95
2022-12-16T10:49:18.152Z,60.59
2022-12-16T10:50:18.122Z,58.17
2022-12-16T10:51:18.015Z,59.14
2022-12-16T10:52:18.009Z,62.20
2022-12-16T10:53:17.986Z,50.60
2022-12-16T10:54:17.957Z,50.76
2022-12-16T10:55:17.966Z,55.91
2022-12-16T10:56:18.012Z,59.94
2022-12-16T10:57:17.979Z,66.06
2022-12-16T10:58:18.619Z,62.20
2022-12-16T10:59:17.956Z,59.46
2022-12-16T11:00:17.924Z,60.42
2022-12-16T11:01:18.016Z,56.56
2022-12-16T11:02:18.291Z,60.10
2022-12-16T11:03:18.171Z,58.33
2022-12-16T11:04:18.041Z,53.98
2022-12-16T11:05:17.884Z,57.20
2022-12-16T11:06:17.909Z,58.17
2022-12-16T11:07:17.852Z,54.46
2022-12-16T11:08:17.860Z,57.04
2022-12-16T11:09:17.834Z,58.49
2022-12-16T11:10:21.536Z,57.20
2022-12-16T11:11:19.825Z,55.27
2022-12-16T11:12:17.848Z,60.26
2022-12-16T11:13:17.837Z,58.65
2022-12-16T11:14:17.841Z,54.30
2022-12-16T11:15:29.069Z,54.30
2022-12-16T11:16:19.837Z,60.75
2022-12-16T11:17:17.801Z,61.71
2022-12-16T11:18:17.783Z,60.26
2022-12-16T11:19:17.773Z,55.91
2022-12-16T11:20:17.781Z,51.56
2022-12-16T11:21:17.781Z,52.05
2022-12-16T11:22:17.746Z,61.71
2022-12-16T11:23:17.730Z,50.43
2022-12-16T11:24:17.727Z,63.16
2022-12-16T11:25:17.744Z,52.85
2022-12-16T11:26:17.751Z,53.50
2022-12-16T11:27:17.716Z,54.30
2022-12-16T11:28:17.713Z,50.43
2022-12-16T11:29:17.701Z,50.43
2022-12-16T11:30:17.714Z,59.62
2022-12-16T11:31:17.743Z,55.91
2022-12-16T11:32:17.715Z,64.94
2022-12-16T11:33:17.697Z,59.62
2022-12-16T11:34:17.696Z,56.88
2022-12-16T11:35:17.640Z,55.43
2022-12-16T11:36:18.646Z,57.20
2022-12-16T11:37:21.005Z,59.30
2022-12-16T11:38:18.635Z,56.72
2022-12-16T11:39:17.620Z,55.59
2022-12-16T11:40:17.751Z,57.20
2022-12-16T11:41:17.603Z,53.66
2022-12-16T11:42:18.534Z,56.56
2022-12-16T11:43:17.636Z,65.42
2022-12-16T11:44:17.625Z,48.66
2022-12-16T11:45:17.589Z,58.01
2022-12-16T11:46:17.582Z,64.45
2022-12-16T11:47:17.551Z,59.62
2022-12-16T11:48:17.672Z,52.37
2022-12-16T11:49:23.377Z,51.56
2022-12-16T11:50:19.559Z,53.66
2022-12-16T11:51:17.521Z,64.13
2022-12-16T11:52:37.993Z,58.97
2022-12-16T11:53:19.538Z,59.46
2022-12-16T11:54:17.540Z,57.36
2022-12-16T11:55:18.223Z,62.04
2022-12-16T11:56:18.536Z,55.75
2022-12-16T11:57:17.484Z,52.53
2022-12-16T11:58:17.470Z,53.66
2022-12-16T11:59:17.503Z,53.17
2022-12-16T12:00:17.480Z,59.94
2022-12-16T12:01:17.448Z,50.76
2022-12-16T12:02:17.605Z,56.40
2022-12-16T12:03:17.653Z,55.59
2022-12-16T12:04:17.460Z,52.69
2022-12-16T12:05:17.440Z,61.71
2022-12-16T12:06:17.447Z,57.69
2022-12-16T12:07:17.420Z,58.17
2022-12-16T12:08:17.427Z,60.75
2022-12-16T12:09:17.397Z,55.59
2022-12-16T12:10:17.411Z,61.55
2022-12-16T12:11:17.415Z,58.81
2022-12-16T12:12:17.370Z,65.42
2022-12-16T12:13:17.403Z,58.65
2022-12-16T12:14:17.361Z,61.39
2022-12-16T12:15:17.367Z,55.11
2022-12-16T12:16:17.501Z,63.16
2022-12-16T12:17:17.346Z,59.14
2022-12-16T12:18:17.353Z,60.42
2022-12-16T12:19:17.330Z,53.66
2022-12-16T12:20:17.320Z,64.29
2022-12-16T12:21:17.332Z,56.56
2022-12-16T12:22:17.282Z,60.10
2022-12-16T12:23:17.316Z,60.75
2022-12-16T12:24:17.306Z,57.04
2022-12-16T12:25:17.311Z,62.68
2022-12-16T12:26:17.314Z,62.20
2022-12-16T12:27:17.263Z,64.45
2022-12-16T12:28:17.277Z,60.91
2022-12-16T12:29:17.292Z,53.66
2022-12-16T12:30:17.265Z,65.74
2022-12-16T12:31:17.309Z,62.20
2022-12-16T12:32:17.231Z,55.75
2022-12-16T12:33:17.232Z,60.26
2022-12-16T12:34:17.242Z,62.20
2022-12-16T12:35:17.209Z,55.27
2022-12-16T12:36:17.303Z,63.97
2022-12-16T12:37:17.175Z,61.23
2022-12-16T12:38:17.177Z,67.03
2022-12-16T12:39:18.717Z,64.61
2022-12-16T12:40:17.155Z,58.97
2022-12-16T12:41:17.162Z,58.01
2022-12-16T12:42:17.163Z,64.13
2022-12-16T12:43:17.153Z,59.94
2022-12-16T12:44:17.850Z,60.10
2022-12-16T12:45:17.127Z,62.52
2022-12-16T12:46:17.232Z,61.87
2022-12-16T12:47:17.194Z,55.11
2022-12-16T12:48:17.108Z,60.59
2022-12-16T12:49:17.102Z,61.55
2022-12-16T12:50:17.108Z,65.42
2022-12-16T12:51:17.114Z,61.39
2022-12-16T12:52:17.122Z,48.98
2022-12-16T12:53:17.057Z,53.33
2022-12-16T12:54:17.108Z,52.85
2022-12-16T12:55:17.056Z,65.90
2022-12-16T12:56:17.059Z,60.42
2022-12-16T12:57:17.060Z,58.01
2022-12-16T12:58:17.762Z,59.62
2022-12-16T12:59:17.063Z,57.52
2022-12-16T13:00:17.016Z,56.40
2022-12-16T13:01:17.056Z,54.62
2022-12-16T13:02:17.156Z,52.21
2022-12-16T13:03:17.178Z,60.59
2022-12-16T13:04:16.985Z,53.01
2022-12-16T13:05:22.536Z,63.16
2022-12-16T13:06:18.965Z,62.84
2022-12-16T13:07:16.977Z,63.97
2022-12-16T13:08:16.997Z,58.33